Smithton, Missouri
Current Conditions -  °F | °C
As of 1:53 PM on Thursday 23 Oct 2014 (Local Time) from KDMO Reporting Station
Broken Clouds Broken Clouds  
Wind Chill: 19°   Ceiling: 7000
Heat Index: 19°   Visibility: 10mi
Dew Point: 14°   Wind: 14mph
Humidity: 70%   Direction: 220°SW
Pressure: 30.11"   Gusts: NA
Location:  38.68°N, 93.09°W
Report Text: KDMO 231853Z AUTO 22012KT 10SM FEW018 FEW046 BKN070 19/14 A3011 RMK AO2 SLP196 T01940139
Loading
Personal Weather Stations






























Interactive Weather Map
Tropical Storm Tracking
New forecast layout! Learn more

10-Day Weather Forecast

Advertisements
Track Severe Weather on mobile